Time;durP1;ratioP1;P1;durP2;ratioP2;P2;SDS_P1;SDS_P2;PMS_P1;PMS_P2;Temp;Humidity;BMP_temperature;BMP_pressure;BME280_temperature;BME280_humidity;BME280_pressure;Samples;Min_cycle;Max_cycle;Signal;HPM_P1;HPM_P2
2021/08/07 00:00:17;;;;;;;7.85;5.85;;;;;;;16.24;100.00;99979.31;4957808;28;20471;-81
2021/08/07 00:02:43;;;;;;;10.73;7.68;;;;;;;16.32;100.00;99983.66;4956070;28;20118;-83
2021/08/07 00:05:08;;;;;;;8.30;6.95;;;;;;;16.28;100.00;99982.41;4957148;28;20093;-81
2021/08/07 00:07:34;;;;;;;13.80;7.05;;;;;;;16.30;100.00;99985.72;4958121;28;20507;-80
2021/08/07 00:10:01;;;;;;;8.73;6.90;;;;;;;16.27;100.00;99979.94;4961811;28;20408;-82
2021/08/07 00:12:26;;;;;;;11.60;6.75;;;;;;;16.27;100.00;99991.59;4968976;28;20496;-81
2021/08/07 00:14:51;;;;;;;8.57;6.75;;;;;;;16.21;100.00;99985.19;4980107;28;20050;-82
2021/08/07 00:17:17;;;;;;;8.35;6.28;;;;;;;16.27;100.00;99980.75;4973618;28;20130;-81
2021/08/07 00:19:42;;;;;;;7.63;6.35;;;;;;;16.27;100.00;99979.94;4986934;28;20039;-80
2021/08/07 00:22:07;;;;;;;9.93;6.80;;;;;;;16.26;100.00;99976.41;4977827;28;20126;-83
2021/08/07 00:24:33;;;;;;;10.63;6.60;;;;;;;16.27;100.00;99980.75;4979725;28;20054;-83
2021/08/07 00:26:58;;;;;;;9.40;6.65;;;;;;;16.26;100.00;99970.19;4979321;28;20538;-84
2021/08/07 00:29:24;;;;;;;9.35;6.00;;;;;;;16.22;100.00;99980.59;4977930;28;20109;-82
2021/08/07 00:31:49;;;;;;;10.63;6.97;;;;;;;16.24;100.00;99970.38;4970384;28;20050;-81
2021/08/07 00:34:15;;;;;;;7.68;5.97;;;;;;;16.27;100.00;99974.53;4995288;28;20407;-80
2021/08/07 00:36:41;;;;;;;9.35;6.15;;;;;;;16.23;100.00;99964.16;4977700;28;20042;-83
2021/08/07 00:39:06;;;;;;;7.28;5.95;;;;;;;16.27;100.00;99963.69;4977952;28;20066;-81
2021/08/07 00:41:31;;;;;;;10.15;5.82;;;;;;;16.25;100.00;99958.50;4989771;28;20066;-80
2021/08/07 00:43:57;;;;;;;6.78;5.90;;;;;;;16.23;100.00;99964.16;4970324;28;20042;-81
2021/08/07 00:46:22;;;;;;;7.63;5.60;;;;;;;16.17;100.00;99964.19;4979245;28;20065;-83
2021/08/07 00:48:49;;;;;;;6.80;5.63;;;;;;;16.13;100.00;99958.38;4976861;28;20077;-78
2021/08/07 00:51:16;;;;;;;9.90;6.30;;;;;;;16.22;100.00;99961.66;4973739;28;20046;-82
2021/08/07 00:53:44;;;;;;;9.30;6.63;;;;;;;16.19;100.00;99956.66;4978876;28;20069;-82
2021/08/07 00:56:10;;;;;;;9.93;6.95;;;;;;;16.22;100.00;99950.81;4992053;28;20046;-80
2021/08/07 00:58:35;;;;;;;9.63;6.80;;;;;;;16.20;100.00;99959.19;4980035;28;20045;-80
2021/08/07 01:01:08;;;;;;;10.95;7.45;;;;;;;16.20;100.00;99955.66;4978199;28;20531;-82
2021/08/07 01:03:47;;;;;;;9.85;7.10;;;;;;;16.23;100.00;99953.31;4961878;28;20395;-82
2021/08/07 01:06:36;;;;;;;9.40;6.18;;;;;;;16.21;100.00;99954.59;4978554;28;20099;-82
2021/08/07 01:09:27;;;;;;;;;;;;;;;16.20;100.00;99951.06;4976683;28;20443;-81
2021/08/07 01:11:53;;;;;;;7.03;5.55;;;;;;;16.12;100.00;99953.22;4969361;28;19972;-83
2021/08/07 01:14:24;;;;;;;9.25;6.00;;;;;;;16.10;100.00;99942.59;4981610;28;20046;-83
2021/08/07 01:16:51;;;;;;;8.48;5.68;;;;;;;16.07;100.00;99936.81;4979317;28;20558;-79
2021/08/07 01:19:18;;;;;;;9.82;6.32;;;;;;;16.09;100.00;99938.25;4980075;28;20046;-79
2021/08/07 01:21:56;;;;;;;9.80;6.45;;;;;;;16.10;100.00;99936.34;4979947;28;20044;-82
2021/08/07 01:24:36;;;;;;;8.10;6.70;;;;;;;16.14;100.00;99933.00;4980951;28;20402;-82
2021/08/07 01:27:17;;;;;;;8.45;5.95;;;;;;;16.09;100.00;99927.41;5012543;28;20122;-82
2021/08/07 01:29:43;;;;;;;8.75;7.13;;;;;;;16.14;100.00;99932.16;4981301;28;20050;-81
2021/08/07 01:32:09;;;;;;;10.00;6.60;;;;;;;16.11;100.00;99919.06;4984002;28;20498;-83
2021/08/07 01:34:37;;;;;;;9.45;7.03;;;;;;;16.11;100.00;99927.19;4981589;28;20049;-81
2021/08/07 01:37:03;;;;;;;12.82;7.28;;;;;;;16.12;100.00;99920.72;4982866;28;20050;-81
2021/08/07 01:39:28;;;;;;;9.55;7.05;;;;;;;16.11;100.00;99927.19;4986497;28;20129;-79
2021/08/07 01:41:53;;;;;;;10.27;7.10;;;;;;;16.11;100.00;99928.03;5000901;28;20034;-82
2021/08/07 01:44:19;;;;;;;10.38;7.63;;;;;;;16.09;100.00;99918.47;5014501;28;20388;-82
2021/08/07 01:47:01;;;;;;;10.98;7.00;;;;;;;16.08;100.00;99908.69;4986180;28;20372;-81
2021/08/07 01:49:53;;;;;;;12.95;7.05;;;;;;;16.10;100.00;99914.69;4983076;28;20041;-81
2021/08/07 01:52:25;;;;;;;8.15;6.70;;;;;;;16.08;100.00;99917.63;4962442;28;20059;-81
2021/08/07 01:54:58;;;;;;;10.43;7.97;;;;;;;16.08;100.00;99924.91;4964948;28;20077;-79
2021/08/07 01:57:25;;;;;;;12.32;8.65;;;;;;;16.08;100.00;99922.22;4965980;28;20066;-83
2021/08/07 01:59:51;;;;;;;12.77;9.15;;;;;;;16.04;100.00;99921.00;4967620;28;20049;-80
2021/08/07 02:02:18;;;;;;;13.27;9.57;;;;;;;16.08;100.00;99916.78;4965598;28;20039;-80
2021/08/07 02:04:43;;;;;;;10.60;7.05;;;;;;;16.10;100.00;99918.22;4947611;28;20230;-81
2021/08/07 02:07:11;;;;;;;10.20;7.30;;;;;;;16.11;100.00;99916.34;4951820;28;20037;-82
2021/08/07 02:09:38;;;;;;;10.65;6.93;;;;;;;16.10;100.00;99909.28;4983370;28;20515;-82
2021/08/07 02:12:05;;;;;;;9.25;7.25;;;;;;;16.02;100.00;99919.34;4962420;28;20039;-80
2021/08/07 02:14:31;;;;;;;10.60;7.60;;;;;;;16.04;100.00;99926.41;4964995;28;20088;-80
2021/08/07 02:17:01;;;;;;;10.10;7.15;;;;;;;15.95;100.00;99932.09;4966706;28;20116;-80
2021/08/07 02:19:27;;;;;;;9.43;7.82;;;;;;;16.00;100.00;99932.28;4966277;28;20041;-80
2021/08/07 02:21:52;;;;;;;13.05;8.13;;;;;;;16.03;100.00;99925.59;4966665;28;20035;-81
2021/08/07 02:24:18;;;;;;;12.68;8.10;;;;;;;15.98;100.00;99920.84;4965532;28;20039;-81
2021/08/07 02:26:44;;;;;;;9.27;7.85;;;;;;;15.97;100.00;99921.91;4984058;28;20093;-80
2021/08/07 02:29:09;;;;;;;12.10;8.70;;;;;;;15.97;100.00;99913.78;4960636;28;20236;-83
2021/08/07 02:31:36;;;;;;;11.50;8.13;;;;;;;15.96;100.00;99916.69;4955410;28;20050;-80
2021/08/07 02:34:02;;;;;;;8.82;7.72;;;;;;;15.99;100.00;99910.84;4965274;28;20043;-82
2021/08/07 02:36:30;;;;;;;11.07;9.18;;;;;;;15.98;100.00;99907.31;4965982;28;20049;-80
2021/08/07 02:38:57;;;;;;;10.25;8.93;;;;;;;15.96;100.00;99914.81;4965897;28;20275;-81
2021/08/07 02:41:23;;;;;;;11.25;8.45;;;;;;;15.94;100.00;99906.09;4966046;28;20174;-81
2021/08/07 02:43:48;;;;;;;12.10;9.65;;;;;;;15.95;100.00;99905.03;4997359;28;20134;-81
2021/08/07 02:46:14;;;;;;;10.52;8.93;;;;;;;15.98;100.00;99914.59;4965837;28;20039;-80
2021/08/07 02:48:40;;;;;;;12.88;9.45;;;;;;;15.95;100.00;99913.16;4964505;28;20039;-80
2021/08/07 02:51:05;;;;;;;10.02;8.98;;;;;;;15.94;100.00;99908.81;4960972;28;20061;-80
2021/08/07 02:53:31;;;;;;;10.32;9.23;;;;;;;15.98;100.00;99912.72;4965595;28;20049;-81
2021/08/07 02:55:58;;;;;;;13.63;10.23;;;;;;;15.95;100.00;99907.75;4980178;28;20385;-79
2021/08/07 02:58:24;;;;;;;11.10;9.90;;;;;;;15.90;100.00;99907.56;4964155;28;20082;-83
2021/08/07 03:00:50;;;;;;;10.00;8.93;;;;;;;15.93;100.00;99909.84;4962718;28;20035;-81
2021/08/07 03:03:15;;;;;;;13.35;9.70;;;;;;;15.96;100.00;99906.69;4963932;28;20431;-81
2021/08/07 03:05:42;;;;;;;10.73;8.88;;;;;;;15.92;100.00;99910.91;4966372;28;20039;-80
2021/08/07 03:08:08;;;;;;;11.30;9.77;;;;;;;15.94;100.00;99911.50;4974789;28;20488;-81
2021/08/07 03:10:33;;;;;;;12.73;10.88;;;;;;;15.96;100.00;99905.88;4953250;28;20049;-82
2021/08/07 03:12:59;;;;;;;14.35;11.90;;;;;;;15.95;100.00;99905.03;4965343;28;20455;-82
2021/08/07 03:15:25;;;;;;;13.50;10.30;;;;;;;15.90;100.00;99904.88;4964216;28;20109;-81
2021/08/07 03:17:51;;;;;;;11.68;9.85;;;;;;;15.91;100.00;99909.25;4966323;28;20043;-79
2021/08/07 03:20:17;;;;;;;10.38;9.27;;;;;;;15.91;100.00;99917.38;4997932;28;20073;-80
2021/08/07 03:22:43;;;;;;;10.43;9.32;;;;;;;15.91;100.00;99913.81;4983822;28;20082;-81
2021/08/07 03:25:10;;;;;;;12.55;10.15;;;;;;;15.89;100.00;99924.88;4985151;28;20761;-81
2021/08/07 03:27:36;;;;;;;16.63;10.93;;;;;;;15.94;100.00;99927.75;4985752;28;20042;-82
2021/08/07 03:30:01;;;;;;;12.30;10.30;;;;;;;15.93;100.00;99914.44;5005137;28;20049;-83
2021/08/07 03:32:27;;;;;;;14.80;10.48;;;;;;;15.90;100.00;99914.88;4983134;28;20223;-80
2021/08/07 03:34:52;;;;;;;12.73;10.38;;;;;;;15.85;100.00;99914.69;4983369;28;20058;-81
2021/08/07 03:37:17;;;;;;;11.00;9.25;;;;;;;15.82;100.00;99913.25;4984274;28;20088;-82
2021/08/07 03:39:43;;;;;;;14.20;11.40;;;;;;;15.85;100.00;99915.53;4973685;28;20106;-81
2021/08/07 03:42:08;;;;;;;15.80;10.73;;;;;;;15.84;100.00;99922.00;5017932;28;20093;-82
2021/08/07 03:44:33;;;;;;;13.02;11.00;;;;;;;15.85;100.00;99918.22;4989355;28;20239;-81
2021/08/07 03:46:59;;;;;;;14.23;10.65;;;;;;;15.84;100.00;99919.28;4978583;28;20050;-81
2021/08/07 03:49:25;;;;;;;16.23;10.25;;;;;;;15.82;100.00;99915.97;4983834;28;20269;-79
2021/08/07 03:51:51;;;;;;;12.48;9.25;;;;;;;15.81;100.00;99925.13;4983314;28;20086;-80
2021/08/07 03:54:16;;;;;;;13.55;10.40;;;;;;;15.86;100.00;99922.59;4979695;28;20043;-79
2021/08/07 03:56:42;;;;;;;13.55;11.23;;;;;;;15.81;100.00;99922.44;4980747;28;20428;-80
2021/08/07 03:59:07;;;;;;;14.10;9.30;;;;;;;15.80;100.00;99915.38;4980617;28;20125;-79
2021/08/07 04:01:33;;;;;;;13.82;9.02;;;;;;;15.79;100.00;99921.81;4983471;28;20085;-81
2021/08/07 04:03:58;;;;;;;12.90;9.60;;;;;;;15.78;100.00;99917.47;4981644;28;20042;-80
2021/08/07 04:06:23;;;;;;;12.18;8.88;;;;;;;15.75;100.00;99923.31;4981845;28;20053;-81
2021/08/07 04:08:49;;;;;;;10.05;7.93;;;;;;;15.78;100.00;99921.00;4979935;28;20398;-81
2021/08/07 04:11:14;;;;;;;11.50;8.55;;;;;;;15.77;100.00;99919.34;4974141;28;20042;-80
2021/08/07 04:13:40;;;;;;;9.80;8.23;;;;;;;15.78;100.00;99915.56;5014062;28;20132;-82
2021/08/07 04:16:05;;;;;;;13.05;8.70;;;;;;;15.79;100.00;99919.97;4963622;28;20137;-81
2021/08/07 04:18:31;;;;;;;10.52;8.60;;;;;;;15.78;100.00;99922.88;4982389;28;20111;-83
2021/08/07 04:20:56;;;;;;;13.35;8.68;;;;;;;15.81;100.00;99921.59;4982799;28;20057;-82
2021/08/07 04:23:22;;;;;;;11.60;9.35;;;;;;;15.79;100.00;99928.06;4995461;28;20069;-81
2021/08/07 04:25:48;;;;;;;11.52;9.65;;;;;;;15.76;100.00;99928.47;4978946;28;20054;-80
2021/08/07 04:28:14;;;;;;;14.60;10.13;;;;;;;15.77;100.00;99934.75;5011402;28;20050;-81
2021/08/07 04:30:40;;;;;;;13.40;9.52;;;;;;;15.74;100.00;99932.47;4975820;28;20035;-82
2021/08/07 04:33:05;;;;;;;15.07;10.23;;;;;;;15.72;100.00;99923.75;4979907;28;20073;-81
2021/08/07 04:35:31;;;;;;;14.63;10.30;;;;;;;15.72;100.00;99934.56;4978141;28;20042;-79
2021/08/07 04:37:58;;;;;;;13.77;9.20;;;;;;;15.78;100.00;99936.41;4979899;28;20046;-79
2021/08/07 04:40:26;;;;;;;14.30;10.40;;;;;;;15.77;100.00;99934.75;4981497;28;20038;-83
2021/08/07 04:42:52;;;;;;;15.35;10.45;;;;;;;15.75;100.00;99934.13;4998003;28;20042;-80
2021/08/07 04:45:17;;;;;;;14.13;11.07;;;;;;;15.73;100.00;99931.63;4996377;28;20036;-82
2021/08/07 04:48:01;;;;;;;14.00;10.60;;;;;;;15.75;100.00;99934.13;4944908;28;20373;-79
2021/08/07 04:50:29;;;;;;;15.38;10.73;;;;;;;15.73;100.00;99930.81;4961701;28;20055;-80
2021/08/07 04:52:56;;;;;;;17.17;11.90;;;;;;;15.76;100.00;99930.38;4977732;28;20479;-80
2021/08/07 04:55:22;;;;;;;15.30;12.35;;;;;;;15.79;100.00;99927.22;4960258;28;20050;-80
2021/08/07 04:57:47;;;;;;;14.35;12.00;;;;;;;15.76;100.00;99925.78;4961099;28;20046;-81
2021/08/07 05:00:14;;;;;;;16.90;13.23;;;;;;;15.75;100.00;99934.13;4961457;28;20051;-81
2021/08/07 05:02:40;;;;;;;18.65;13.48;;;;;;;15.76;100.00;99931.19;4949655;28;20043;-81
2021/08/07 05:05:06;;;;;;;16.75;14.35;;;;;;;15.80;100.00;99926.19;4973238;28;20046;-81
2021/08/07 05:07:32;;;;;;;17.92;14.52;;;;;;;15.81;100.00;99927.84;4977328;28;20046;-81
2021/08/07 05:10:01;;;;;;;18.20;15.02;;;;;;;15.82;100.00;99926.78;4979058;28;20052;-82
2021/08/07 05:12:29;;;;;;;;;;;;;;;15.84;100.00;99923.88;4995333;28;20058;-80
2021/08/07 05:14:55;;;;;;;21.77;14.73;;;;;;;15.75;100.00;99931.41;4980677;28;19921;-82
2021/08/07 05:17:21;;;;;;;23.08;15.15;;;;;;;15.78;100.00;99933.69;4981205;28;20038;-80
2021/08/07 05:19:47;;;;;;;17.88;14.00;;;;;;;15.81;100.00;99933.25;4982420;28;20078;-81
2021/08/07 05:22:12;;;;;;;20.67;13.82;;;;;;;15.83;100.00;99930.34;4962892;28;20299;-81
2021/08/07 05:24:38;;;;;;;20.70;14.73;;;;;;;15.85;100.00;99923.63;4979981;28;20042;-82
2021/08/07 05:27:03;;;;;;;19.33;14.98;;;;;;;15.84;100.00;99919.28;4980396;28;20073;-81
2021/08/07 05:29:28;;;;;;;18.40;14.82;;;;;;;15.85;100.00;99923.63;4959062;28;20177;-83
2021/08/07 05:31:54;;;;;;;21.17;14.32;;;;;;;15.84;100.00;99915.75;4960459;28;20542;-80
2021/08/07 05:34:19;;;;;;;19.88;14.70;;;;;;;15.80;100.00;99915.38;4977451;28;20042;-79
2021/08/07 05:36:44;;;;;;;17.75;13.77;;;;;;;15.81;100.00;99903.50;4981496;28;20053;-79
2021/08/07 05:39:10;;;;;;;17.13;13.23;;;;;;;15.87;100.00;99916.13;4985653;28;20053;-80
2021/08/07 05:41:35;;;;;;;17.67;12.43;;;;;;;15.92;100.00;99913.59;4985923;28;20463;-81
2021/08/07 05:44:01;;;;;;;17.13;12.77;;;;;;;15.89;100.00;99913.22;4983948;28;20483;-82
2021/08/07 05:46:26;;;;;;;16.10;11.70;;;;;;;15.94;100.00;99906.09;4983266;28;20407;-81
2021/08/07 05:48:54;;;;;;;16.63;10.88;;;;;;;15.93;100.00;99909.84;4984783;28;20097;-82
2021/08/07 05:51:20;;;;;;;13.93;10.65;;;;;;;15.94;100.00;99916.06;4983942;28;20038;-80
2021/08/07 05:53:45;;;;;;;13.38;10.30;;;;;;;15.96;100.00;99913.97;4986860;28;20570;-80
2021/08/07 05:56:10;;;;;;;14.48;10.63;;;;;;;16.04;100.00;99904.78;4984903;28;20046;-80
2021/08/07 05:58:37;;;;;;;11.50;9.45;;;;;;;16.00;100.00;99913.34;4979086;28;20053;-79
2021/08/07 06:01:04;;;;;;;14.60;9.25;;;;;;;16.06;100.00;99902.69;5000852;28;20237;-81
2021/08/07 06:03:29;;;;;;;13.15;8.52;;;;;;;16.05;100.00;99895.59;4980747;28;20049;-79
2021/08/07 06:05:55;;;;;;;12.23;8.75;;;;;;;16.09;100.00;99904.94;4973969;28;20043;-79
2021/08/07 06:08:20;;;;;;;14.38;8.50;;;;;;;16.11;100.00;99898.25;4981215;28;20038;-79
2021/08/07 06:10:45;;;;;;;13.15;9.02;;;;;;;16.10;100.00;99898.47;4979886;28;20048;-80
2021/08/07 06:13:11;;;;;;;13.10;8.90;;;;;;;16.13;100.00;99903.44;4980565;28;20085;-82
2021/08/07 06:15:36;;;;;;;14.35;8.70;;;;;;;16.16;100.00;99897.56;5012373;28;20096;-82
2021/08/07 06:18:02;;;;;;;9.63;7.28;;;;;;;16.12;100.00;99896.38;4977787;28;20054;-82
2021/08/07 06:20:27;;;;;;;9.95;7.40;;;;;;;16.12;100.00;99894.50;4984326;28;20524;-82
2021/08/07 06:22:53;;;;;;;10.63;7.00;;;;;;;16.19;100.00;99895.25;4993005;28;20050;-82
2021/08/07 06:25:18;;;;;;;10.48;7.00;;;;;;;16.26;100.00;99892.50;4978324;28;20284;-81
2021/08/07 06:27:44;;;;;;;9.68;7.25;;;;;;;16.28;100.00;99893.06;4983640;28;20039;-79
2021/08/07 06:30:10;;;;;;;8.65;7.13;;;;;;;16.31;100.00;99894.50;4978572;28;20081;-81
2021/08/07 06:32:35;;;;;;;9.30;6.43;;;;;;;16.35;100.00;99885.72;4977925;28;20443;-79
2021/08/07 06:35:00;;;;;;;9.48;6.18;;;;;;;16.40;100.00;99887.75;4979092;28;20055;-80
2021/08/07 06:37:26;;;;;;;10.15;6.05;;;;;;;16.42;100.00;99885.66;5010303;28;20532;-82
2021/08/07 06:39:51;;;;;;;9.18;5.72;;;;;;;16.45;100.00;99885.19;4979667;28;20103;-82
2021/08/07 06:42:17;;;;;;;7.47;5.10;;;;;;;16.45;100.00;99885.19;5010467;28;20035;-81
2021/08/07 06:44:42;;;;;;;6.60;5.40;;;;;;;16.48;100.00;99887.47;4979329;28;20128;-83
2021/08/07 06:47:08;;;;;;;5.60;4.57;;;;;;;16.48;100.00;99892.88;4978206;28;20043;-82
2021/08/07 06:49:34;;;;;;;7.32;4.95;;;;;;;16.53;100.00;99886.78;4980748;28;20241;-80
2021/08/07 06:51:59;;;;;;;7.00;4.80;;;;;;;16.61;100.00;99889.22;4980318;28;20046;-79
2021/08/07 06:54:24;;;;;;;7.00;4.80;;;;;;;16.68;100.00;99890.78;4951972;28;20051;-83
2021/08/07 06:56:50;;;;;;;6.63;4.53;;;;;;;16.78;99.89;99890.28;4959985;28;20149;-80
2021/08/07 06:59:15;;;;;;;6.72;4.22;;;;;;;16.84;98.72;99883.97;4953669;28;20448;-83
2021/08/07 07:01:41;;;;;;;4.70;3.63;;;;;;;16.90;98.77;99882.22;4961200;28;20261;-82
2021/08/07 07:04:06;;;;;;;4.88;3.20;;;;;;;16.95;97.35;99884.25;4957954;28;20038;-82
2021/08/07 07:06:31;;;;;;;6.45;3.05;;;;;;;17.02;97.44;99879.56;4960467;28;20051;-79
2021/08/07 07:08:57;;;;;;;5.30;2.83;;;;;;;17.10;96.10;99882.78;4956503;28;20057;-82
2021/08/07 07:11:22;;;;;;;5.78;2.70;;;;;;;17.28;96.59;99881.09;4961936;28;20045;-79
2021/08/07 07:13:48;;;;;;;6.38;3.03;;;;;;;17.36;94.57;99880.75;4988056;28;20128;-83
2021/08/07 07:16:14;;;;;;;5.82;4.28;;;;;;;17.38;93.87;99881.38;4982688;28;20697;-81
2021/08/07 07:18:39;;;;;;;4.88;2.83;;;;;;;17.49;93.80;99879.72;4995061;28;20120;-81
2021/08/07 07:21:05;;;;;;;5.60;3.38;;;;;;;17.57;93.16;99882.13;4978988;28;20398;-82
2021/08/07 07:23:30;;;;;;;6.82;2.90;;;;;;;17.63;92.26;99883.06;4981730;28;20495;-80
2021/08/07 07:25:55;;;;;;;5.28;2.90;;;;;;;17.66;91.96;99882.59;4983258;28;20056;-78
2021/08/07 07:28:21;;;;;;;4.15;2.08;;;;;;;17.72;91.81;99885.22;4981329;28;20054;-83
2021/08/07 07:30:47;;;;;;;3.20;1.80;;;;;;;17.83;91.15;99880.06;4980075;28;20038;-82
2021/08/07 07:33:14;;;;;;;4.13;2.10;;;;;;;17.95;90.34;99889.91;4982532;28;20143;-81
2021/08/07 07:35:40;;;;;;;4.63;2.22;;;;;;;17.98;89.22;99886.72;4984475;28;20039;-78
2021/08/07 07:38:05;;;;;;;4.47;2.40;;;;;;;17.95;88.70;99883.63;4981439;28;20041;-82
2021/08/07 07:40:30;;;;;;;4.03;2.30;;;;;;;17.96;89.00;99890.72;4982294;28;20043;-82
2021/08/07 07:42:56;;;;;;;5.72;2.30;;;;;;;18.10;90.04;99881.28;4982093;28;20035;-79
2021/08/07 07:45:21;;;;;;;4.47;2.42;;;;;;;18.02;88.75;99873.50;4955082;28;20093;-80
2021/08/07 07:47:48;;;;;;;5.82;2.53;;;;;;;18.04;88.71;99874.09;4982167;28;20053;-82
2021/08/07 07:50:14;;;;;;;6.93;2.80;;;;;;;18.08;89.02;99888.00;4996445;28;20058;-83
2021/08/07 07:52:40;;;;;;;6.40;3.47;;;;;;;18.13;88.83;99883.53;4982294;28;20867;-84
2021/08/07 07:55:08;;;;;;;4.50;3.22;;;;;;;18.16;88.57;99891.19;4983902;28;20043;-78
2021/08/07 07:57:33;;;;;;;4.55;3.13;;;;;;;18.12;87.36;99887.28;4984121;28;20132;-81
2021/08/07 07:59:59;;;;;;;5.47;3.40;;;;;;;18.21;88.65;99883.19;4987364;28;20471;-82
2021/08/07 08:02:24;;;;;;;5.65;3.38;;;;;;;18.24;88.00;99890.00;4984224;28;20045;-85
2021/08/07 08:04:49;;;;;;;9.60;3.72;;;;;;;18.27;87.80;99887.66;4987391;28;20034;-83
2021/08/07 08:07:15;;;;;;;4.28;2.80;;;;;;;18.23;86.76;99880.22;4986551;28;20034;-81
2021/08/07 08:09:40;;;;;;;7.53;4.70;;;;;;;18.18;86.64;99889.09;4985414;28;20053;-83
2021/08/07 08:12:06;;;;;;;6.38;3.72;;;;;;;18.28;87.46;99883.06;4980048;28;20039;-84
2021/08/07 08:14:32;;;;;;;6.15;4.00;;;;;;;18.37;88.14;99888.94;4999546;28;20046;-79
2021/08/07 08:16:57;;;;;;;7.35;3.67;;;;;;;18.41;86.91;99879.25;4981793;28;20034;-82
2021/08/07 08:19:22;;;;;;;5.80;3.38;;;;;;;18.47;86.06;99879.16;4986937;28;20709;-85
2021/08/07 08:21:48;;;;;;;5.40;3.20;;;;;;;18.45;86.46;99877.72;4971179;28;20037;-86
2021/08/07 08:24:13;;;;;;;5.50;3.38;;;;;;;18.38;85.64;99888.69;4996605;28;20034;-84
2021/08/07 08:26:41;;;;;;;5.32;3.17;;;;;;;18.39;85.79;99879.50;4984019;28;20579;-82
2021/08/07 08:29:07;;;;;;;7.28;3.38;;;;;;;18.42;85.00;99884.47;4989163;28;20130;-80
2021/08/07 08:31:32;;;;;;;6.97;3.40;;;;;;;18.48;85.51;99872.63;5000837;28;20073;-81
2021/08/07 08:33:57;;;;;;;6.50;3.40;;;;;;;18.60;85.48;99869.06;4982357;28;20062;-81
2021/08/07 08:36:23;;;;;;;6.63;3.35;;;;;;;18.62;85.43;99877.81;4987295;28;20047;-84
2021/08/07 08:38:48;;;;;;;5.97;3.10;;;;;;;18.67;85.76;99875.19;4992035;28;20080;-80
2021/08/07 08:41:14;;;;;;;6.10;3.65;;;;;;;18.71;84.42;99871.75;4988663;28;20105;-82
2021/08/07 08:43:40;;;;;;;5.15;3.83;;;;;;;18.78;84.09;99870.84;4983458;28;20096;-84
2021/08/07 08:46:06;;;;;;;7.57;3.85;;;;;;;18.91;84.78;99865.13;5001746;28;20109;-82
2021/08/07 08:48:32;;;;;;;5.25;3.20;;;;;;;19.05;86.11;99854.81;5002161;28;20685;-82
2021/08/07 08:50:58;;;;;;;7.03;3.20;;;;;;;19.06;83.59;99856.44;4986241;28;20046;-83
2021/08/07 08:53:23;;;;;;;4.90;3.38;;;;;;;19.03;84.24;99854.22;4996592;28;20153;-84
2021/08/07 08:55:49;;;;;;;7.68;3.42;;;;;;;18.99;84.64;99853.88;4981551;28;20121;-81
2021/08/07 08:58:16;;;;;;;5.70;3.63;;;;;;;19.05;84.65;99852.91;4986956;28;20121;-81
2021/08/07 09:00:42;;;;;;;4.93;2.63;;;;;;;19.05;83.34;99850.19;4986952;28;20443;-83
2021/08/07 09:03:07;;;;;;;4.25;2.28;;;;;;;19.20;83.15;99856.97;5009821;28;20038;-80
2021/08/07 09:05:33;;;;;;;4.07;2.40;;;;;;;19.24;81.03;99847.25;4998780;28;20046;-86
2021/08/07 09:07:58;;;;;;;6.15;2.88;;;;;;;19.25;81.41;99840.72;4982231;28;20487;-84
2021/08/07 09:10:24;;;;;;;6.13;4.05;;;;;;;19.26;81.31;99847.84;4986145;28;20570;-81
2021/08/07 09:12:55;;;;;;;7.28;4.45;;;;;;;19.25;82.52;99838.88;4983935;28;20054;-85
2021/08/07 09:15:30;;;;;;;5.70;5.10;;;;;;;19.36;81.26;99826.25;4984699;28;20081;-86
2021/08/07 09:18:11;;;;;;;5.93;5.43;;;;;;;19.38;81.66;99818.69;4999790;28;20125;-79
2021/08/07 09:20:37;;;;;;;7.53;6.32;;;;;;;19.38;81.52;99821.41;4984119;28;20082;-84
2021/08/07 09:23:03;;;;;;;8.15;5.90;;;;;;;19.53;81.85;99821.66;4963683;28;20663;-84
2021/08/07 09:25:37;;;;;;;6.68;5.78;;;;;;;19.81;82.79;99830.84;4984872;28;20491;-84
2021/08/07 09:28:04;;;;;;;5.63;5.00;;;;;;;20.03;80.56;99820.84;4986147;28;20046;-85
2021/08/07 09:30:33;;;;;;;8.65;5.18;;;;;;;20.12;79.02;99817.69;4978330;28;20042;-87
2021/08/07 09:33:02;;;;;;;6.47;5.05;;;;;;;20.27;80.21;99824.16;4996999;28;20046;-86
2021/08/07 09:35:30;;;;;;;8.15;5.00;;;;;;;20.23;78.26;99820.31;4984673;28;20610;-82
2021/08/07 09:38:03;;;;;;;6.40;4.97;;;;;;;20.16;77.75;99811.47;4984260;28;20133;-83
2021/08/07 09:40:48;;;;;;;7.97;5.30;;;;;;;20.12;79.42;99815.78;5001640;28;20107;-84
2021/08/07 09:43:16;;;;;;;10.57;5.68;;;;;;;20.01;78.60;99814.81;4986524;28;20404;-85
2021/08/07 09:45:42;;;;;;;7.60;4.78;;;;;;;20.03;78.86;99809.13;5018487;28;20035;-84
2021/08/07 09:48:13;;;;;;;8.27;4.53;;;;;;;20.21;78.31;99797.94;4968525;28;20061;-83
2021/08/07 09:50:40;;;;;;;5.68;4.68;;;;;;;20.20;77.52;99806.38;4983923;28;20049;-84
2021/08/07 09:53:18;;;;;;;6.65;5.32;;;;;;;20.16;78.02;99805.22;4987710;28;20031;-82
2021/08/07 09:56:04;;;;;;;5.63;4.47;;;;;;;20.23;78.38;99798.50;5001023;28;20034;-87
2021/08/07 09:58:30;;;;;;;7.82;3.92;;;;;;;20.38;78.74;99797.88;4974187;28;20495;-84
2021/08/07 10:00:56;;;;;;;7.55;4.03;;;;;;;20.46;75.80;99804.81;4983692;28;20042;-85
2021/08/07 10:03:27;;;;;;;6.82;3.50;;;;;;;20.48;74.52;99792.56;4984809;28;20034;-85
2021/08/07 10:05:52;;;;;;;4.95;3.47;;;;;;;20.42;74.17;99814.53;4995701;28;20381;-84
2021/08/07 10:08:18;;;;;;;4.93;2.90;;;;;;;20.38;74.10;99800.59;4984454;28;20191;-82
2021/08/07 10:10:45;;;;;;;7.25;3.33;;;;;;;20.42;73.20;99803.66;4984626;28;20138;-87
2021/08/07 10:13:11;;;;;;;5.25;3.15;;;;;;;20.56;74.38;99801.41;4985686;28;20065;-88
2021/08/07 10:15:39;;;;;;;6.65;3.03;;;;;;;20.56;73.83;99794.03;4986758;28;20038;-86
2021/08/07 10:18:05;;;;;;;6.13;3.05;;;;;;;20.57;74.16;99798.44;4983148;28;20515;-84
2021/08/07 10:20:33;;;;;;;7.20;3.35;;;;;;;20.52;75.17;99790.16;5005201;28;20125;-88
2021/08/07 10:22:59;;;;;;;7.43;3.72;;;;;;;20.59;74.50;99792.72;4986149;28;20057;-83
2021/08/07 10:25:25;;;;;;;7.00;3.08;;;;;;;20.75;76.46;99789.09;4999864;28;20042;-86
2021/08/07 10:28:00;;;;;;;6.80;3.53;;;;;;;20.84;73.35;99794.91;4964365;28;20053;-80
2021/08/07 10:30:29;;;;;;;5.20;3.22;;;;;;;20.76;73.95;99798.09;4996872;28;20491;-84
2021/08/07 10:32:56;;;;;;;;;;;;;;;20.57;73.94;99794.88;5015444;28;20046;-83
2021/08/07 10:35:23;;;;;;;6.45;3.70;;;;;;;20.59;77.09;99790.81;4982791;28;20383;-89
2021/08/07 10:37:49;;;;;;;6.32;3.03;;;;;;;20.67;73.29;99789.53;4995459;28;20492;-90
2021/08/07 10:40:14;;;;;;;5.82;3.17;;;;;;;21.02;75.20;99794.56;4983064;28;20129;-85
2021/08/07 10:42:40;;;;;;;9.05;2.90;;;;;;;21.20;75.02;99779.72;4980368;28;20039;-88
2021/08/07 10:45:09;;;;;;;6.95;2.40;;;;;;;21.21;70.67;99775.09;4984023;28;20042;-87
2021/08/07 10:47:35;;;;;;;;;;;;;;;21.16;71.51;99781.31;4987114;28;20050;-86
2021/08/07 10:50:35;;;;;;;4.72;1.88;;;;;;;21.01;69.68;99781.19;5015259;28;19917;-84
2021/08/07 10:53:06;;;;;;;4.32;1.42;;;;;;;20.83;69.98;99780.47;4964910;28;20049;-86
2021/08/07 10:55:49;;;;;;;7.30;1.98;;;;;;;21.14;70.41;99772.56;4987020;28;20038;-86
2021/08/07 10:58:42;;;;;;;4.80;1.85;;;;;;;21.25;69.29;99757.94;4981310;28;20077;-87
2021/08/07 11:01:25;;;;;;;3.08;1.30;;;;;;;21.18;66.99;99758.16;4986056;28;20060;-83
2021/08/07 11:04:32;;;;;;;4.60;1.20;;;;;;;21.13;63.93;99746.38;4989530;28;20046;-82
2021/08/07 11:07:03;;;;;;;4.78;1.50;;;;;;;21.17;67.09;99756.50;5000990;28;20193;-85
2021/08/07 11:09:33;;;;;;;3.90;1.40;;;;;;;21.39;69.18;99748.28;4964004;28;20043;-89
2021/08/07 11:12:05;;;;;;;3.78;1.30;;;;;;;21.51;66.32;99744.53;4966228;28;20047;-84
2021/08/07 11:14:33;;;;;;;5.10;1.48;;;;;;;21.56;64.30;99748.13;4980097;28;20043;-84
2021/08/07 11:20:04;;;;;;;5.30;1.48;;;;;;;21.92;64.10;99739.34;4985522;28;20070;-87
2021/08/07 11:22:32;;;;;;;3.63;1.50;;;;;;;21.97;64.19;99733.91;4987113;28;20034;-84
2021/08/07 11:24:59;;;;;;;5.57;1.48;;;;;;;22.07;65.17;99726.59;4989311;28;20042;-87
2021/08/07 11:30:19;;;;;;;6.05;1.55;;;;;;;21.78;62.43;99722.59;4983249;28;20047;-87